Time,TemperatureF,DewpointF,PressureIn,WindDirection,WindDirectionDegrees,WindSpeedMPH,WindSpeedGustMPH,Humidity,HourlyPrecipIn,Conditions,Clouds,dailyrainin,SoftwareType,DateUTC
2013-01-20 00:00:00,36.7,28.2,29.93,East,83,1.0,1.0,71,0.00,,---,0.00,VWS V14.01,2013-01-20 05:00:00,
2013-01-20 00:01:00,36.7,27.9,29.94,SSE,160,1.0,3.0,70,0.00,,---,0.00,VWS V14.01,2013-01-20 05:01:00,
2013-01-20 00:02:00,36.7,28.2,29.93,SW,224,0.0,1.0,71,0.00,,---,0.00,VWS V14.01,2013-01-20 05:02:00,
2013-01-20 00:07:00,36.7,27.9,29.93,SW,214,0.0,1.0,70,0.00,,---,0.00,VWS V14.01,2013-01-20 05:07:00,
2013-01-20 00:13:00,37.7,27.8,29.93,East,80,0.0,1.0,67,0.00,,---,0.00,VWS V14.01,2013-01-20 05:13:00,
2013-01-20 00:18:00,38.4,28.0,29.92,WSW,239,0.0,0.0,66,0.00,,---,0.00,VWS V14.01,2013-01-20 05:18:00,
2013-01-20 00:23:00,38.5,26.2,29.92,SW,232,1.0,5.0,61,0.00,,---,0.00,VWS V14.01,2013-01-20 05:23:00,
2013-01-20 00:28:00,39.3,27.8,29.92,SE,146,0.0,1.0,63,0.00,,---,0.00,VWS V14.01,2013-01-20 05:28:00,
2013-01-20 00:33:00,38.5,27.8,29.92,ESE,122,0.0,1.0,65,0.00,,---,0.00,VWS V14.01,2013-01-20 05:33:00,
2013-01-20 00:38:00,37.9,27.9,29.91,SW,236,1.0,3.0,67,0.00,,---,0.00,VWS V14.01,2013-01-20 05:38:00,
2013-01-20 00:43:00,37.6,27.6,29.91,SSE,152,0.0,0.0,67,0.00,,---,0.00,VWS V14.01,2013-01-20 05:43:00,
2013-01-20 00:48:00,37.2,27.3,29.91,SSE,165,0.0,0.0,67,0.00,,---,0.00,VWS V14.01,2013-01-20 05:48:00,
2013-01-20 00:53:00,37.5,27.2,29.91,SSE,155,0.0,0.0,66,0.00,,---,0.00,VWS V14.01,2013-01-20 05:53:00,
2013-01-20 00:58:00,38.1,24.6,29.91,West,273,0.0,0.0,58,0.00,,---,0.00,VWS V14.01,2013-01-20 05:58:00,
2013-01-20 01:04:00,39.2,25.7,29.91,South,183,1.0,1.0,58,0.00,,---,0.00,VWS V14.01,2013-01-20 06:04:00,
2013-01-20 01:09:00,39.6,26.1,29.91,WSW,237,0.0,1.0,58,0.00,,---,0.00,VWS V14.01,2013-01-20 06:09:00,
2013-01-20 01:14:00,39.5,24.7,29.92,SE,131,0.0,0.0,55,0.00,,---,0.00,VWS V14.01,2013-01-20 06:14:00,
2013-01-20 01:19:00,39.4,25.0,29.91,NNE,25,3.0,5.0,56,0.00,,---,0.00,VWS V14.01,2013-01-20 06:19:00,
2013-01-20 01:24:00,39.4,26.3,29.91,NE,34,0.0,0.0,59,0.00,,---,0.00,VWS V14.01,2013-01-20 06:24:00,
2013-01-20 01:29:00,39.0,25.5,29.92,NNW,331,0.0,0.0,58,0.00,,---,0.00,VWS V14.01,2013-01-20 06:29:00,
2013-01-20 01:34:00,39.5,24.7,29.91,South,183,0.0,0.0,55,0.00,,---,0.00,VWS V14.01,2013-01-20 06:34:00,
2013-01-20 01:39:00,39.8,24.5,29.91,ESE,117,0.0,1.0,54,0.00,,---,0.00,VWS V14.01,2013-01-20 06:39:00,
2013-01-20 01:44:00,39.8,25.0,29.91,SE,124,0.0,1.0,55,0.00,,---,0.00,VWS V14.01,2013-01-20 06:44:00,
2013-01-20 01:49:00,39.6,24.3,29.91,East,84,0.0,1.0,54,0.00,,---,0.00,VWS V14.01,2013-01-20 06:49:00,
2013-01-20 01:54:00,39.6,24.3,29.91,SSE,151,0.0,3.0,54,0.00,,---,0.00,VWS V14.01,2013-01-20 06:54:00,
2013-01-20 01:59:00,40.0,25.1,29.91,SSE,150,0.0,0.0,55,0.00,,---,0.00,VWS V14.01,2013-01-20 06:59:00,
2013-01-20 02:04:00,40.2,24.9,29.91,SSE,149,0.0,0.0,54,0.00,,---,0.00,VWS V14.01,2013-01-20 07:04:00,
2013-01-20 02:09:00,40.3,25.0,29.91,WNW,283,0.0,2.0,54,0.00,,---,0.00,VWS V14.01,2013-01-20 07:09:00,
2013-01-20 02:14:00,40.3,25.0,29.91,ENE,64,0.0,3.0,54,0.00,,---,0.00,VWS V14.01,2013-01-20 07:14:00,
2013-01-20 02:19:00,40.6,24.4,29.91,NNW,347,0.0,4.0,52,0.00,,---,0.00,VWS V14.01,2013-01-20 07:19:00,
2013-01-20 02:24:00,40.8,24.1,29.90,SSE,153,1.0,4.0,51,0.00,,---,0.00,VWS V14.01,2013-01-20 07:24:00,
2013-01-20 02:29:00,40.8,24.5,29.90,South,172,0.0,5.0,52,0.00,,---,0.00,VWS V14.01,2013-01-20 07:29:00,
2013-01-20 02:34:00,40.9,24.6,29.90,WNW,289,3.0,3.0,52,0.00,,---,0.00,VWS V14.01,2013-01-20 07:34:00,
2013-01-20 02:40:00,41.2,24.5,29.90,East,79,0.0,0.0,51,0.00,,---,0.00,VWS V14.01,2013-01-20 07:40:00,
2013-01-20 02:45:00,40.9,24.2,29.90,East,79,0.0,0.0,51,0.00,,---,0.00,VWS V14.01,2013-01-20 07:45:00,
2013-01-20 02:50:00,40.9,24.6,29.90,ESE,103,0.0,1.0,52,0.00,,---,0.00,VWS V14.01,2013-01-20 07:50:00,
2013-01-20 02:55:00,40.7,24.9,29.89,NE,45,0.0,0.0,53,0.00,,---,0.00,VWS V14.01,2013-01-20 07:55:00,
2013-01-20 03:00:00,40.8,25.0,29.89,SW,221,0.0,1.0,53,0.00,,---,0.00,VWS V14.01,2013-01-20 08:00:00,
2013-01-20 03:05:00,40.5,25.2,29.89,SSE,160,0.0,1.0,54,0.00,,---,0.00,VWS V14.01,2013-01-20 08:05:00,
2013-01-20 03:10:00,40.2,24.9,29.89,ESE,104,0.0,1.0,54,0.00,,---,0.00,VWS V14.01,2013-01-20 08:10:00,
2013-01-20 03:15:00,40.4,25.1,29.89,SW,226,1.0,5.0,54,0.00,,---,0.00,VWS V14.01,2013-01-20 08:15:00,
2013-01-20 03:20:00,40.9,25.1,29.88,ESE,117,0.0,3.0,53,0.00,,---,0.00,VWS V14.01,2013-01-20 08:20:00,
2013-01-20 03:25:00,40.7,24.9,29.88,NNE,25,1.0,1.0,53,0.00,,---,0.00,VWS V14.01,2013-01-20 08:25:00,
2013-01-20 03:30:00,40.9,25.1,29.88,NE,56,0.0,1.0,53,0.00,,---,0.00,VWS V14.01,2013-01-20 08:30:00,
2013-01-20 03:35:00,41.2,25.4,29.88,East,79,1.0,1.0,53,0.00,,---,0.00,VWS V14.01,2013-01-20 08:35:00,
2013-01-20 03:40:00,41.3,25.0,29.88,East,80,0.0,2.0,52,0.00,,---,0.00,VWS V14.01,2013-01-20 08:40:00,
2013-01-20 03:45:00,41.4,25.1,29.87,WSW,253,0.0,1.0,52,0.00,,---,0.00,VWS V14.01,2013-01-20 08:45:00,
2013-01-20 03:51:00,41.2,24.5,29.87,SSW,198,3.0,3.0,51,0.00,,---,0.00,VWS V14.01,2013-01-20 08:51:00,
2013-01-20 03:56:00,41.6,25.3,29.86,ESE,107,0.0,1.0,52,0.00,,---,0.00,VWS V14.01,2013-01-20 08:56:00,
2013-01-20 04:01:00,41.2,24.9,29.86,SW,233,0.0,0.0,52,0.00,,---,0.00,VWS V14.01,2013-01-20 09:01:00,
2013-01-20 04:06:00,41.3,25.0,29.86,ENE,61,0.0,2.0,52,0.00,,---,0.00,VWS V14.01,2013-01-20 09:06:00,
2013-01-20 04:11:00,41.3,24.5,29.86,SSW,210,0.0,4.0,51,0.00,,---,0.00,VWS V14.01,2013-01-20 09:11:00,
2013-01-20 04:16:00,41.6,25.3,29.86,ESE,105,2.0,5.0,52,0.00,,---,0.00,VWS V14.01,2013-01-20 09:16:00,
2013-01-20 04:21:00,41.8,25.5,29.85,SSW,203,0.0,2.0,52,0.00,,---,0.00,VWS V14.01,2013-01-20 09:21:00,
2013-01-20 04:27:00,41.5,25.2,29.86,NNE,18,0.0,1.0,52,0.00,,---,0.00,VWS V14.01,2013-01-20 09:27:00,
2013-01-20 04:32:00,41.4,25.6,29.85,SSE,160,0.0,0.0,53,0.00,,---,0.00,VWS V14.01,2013-01-20 09:32:00,
2013-01-20 04:37:00,41.2,25.4,29.85,NE,47,1.0,1.0,53,0.00,,---,0.00,VWS V14.01,2013-01-20 09:37:00,
2013-01-20 04:42:00,41.1,25.7,29.85,SSW,203,3.0,5.0,54,0.00,,---,0.00,VWS V14.01,2013-01-20 09:42:00,
2013-01-20 04:47:00,41.0,25.6,29.85,WSW,240,1.0,2.0,54,0.00,,---,0.00,VWS V14.01,2013-01-20 09:47:00,
2013-01-20 04:52:00,41.1,25.3,29.84,NNE,17,0.0,2.0,53,0.00,,---,0.00,VWS V14.01,2013-01-20 09:52:00,
2013-01-20 04:57:00,41.1,25.7,29.84,SE,129,0.0,1.0,54,0.00,,---,0.00,VWS V14.01,2013-01-20 09:57:00,
2013-01-20 05:02:00,40.8,25.5,29.84,NE,47,0.0,3.0,54,0.00,,---,0.00,VWS V14.01,2013-01-20 10:02:00,
2013-01-20 05:07:00,40.7,25.8,29.84,SSE,149,0.0,1.0,55,0.00,,---,0.00,VWS V14.01,2013-01-20 10:07:00,
2013-01-20 05:12:00,40.4,25.5,29.84,East,95,0.0,0.0,55,0.00,,---,0.00,VWS V14.01,2013-01-20 10:12:00,
2013-01-20 05:17:00,40.2,25.3,29.83,NNW,330,0.0,5.0,55,0.00,,---,0.00,VWS V14.01,2013-01-20 10:17:00,
2013-01-20 05:22:00,40.1,26.1,29.84,NNW,337,0.0,0.0,57,0.00,,---,0.00,VWS V14.01,2013-01-20 10:22:00,
2013-01-20 05:27:00,40.0,25.6,29.84,South,169,0.0,0.0,56,0.00,,---,0.00,VWS V14.01,2013-01-20 10:27:00,
2013-01-20 05:32:00,40.0,26.0,29.83,SW,226,3.0,6.0,57,0.00,,---,0.00,VWS V14.01,2013-01-20 10:32:00,
2013-01-20 05:37:00,40.1,25.7,29.83,SE,125,0.0,0.0,56,0.00,,---,0.00,VWS V14.01,2013-01-20 10:37:00,
2013-01-20 05:42:00,40.0,26.0,29.83,SE,124,0.0,2.0,57,0.00,,---,0.00,VWS V14.01,2013-01-20 10:42:00,
2013-01-20 05:47:00,39.8,25.8,29.83,NE,49,0.0,2.0,57,0.00,,---,0.00,VWS V14.01,2013-01-20 10:47:00,
2013-01-20 05:52:00,39.7,26.1,29.83,East,99,0.0,2.0,58,0.00,,---,0.00,VWS V14.01,2013-01-20 10:52:00,
2013-01-20 05:57:00,39.9,25.9,29.83,SE,131,0.0,3.0,57,0.00,,---,0.00,VWS V14.01,2013-01-20 10:57:00,
2013-01-20 06:02:00,40.6,25.3,29.82,NNE,27,0.0,2.0,54,0.00,,---,0.00,VWS V14.01,2013-01-20 11:02:00,
2013-01-20 06:08:00,40.9,26.0,29.83,South,179,0.0,1.0,55,0.00,,---,0.00,VWS V14.01,2013-01-20 11:08:00,
2013-01-20 06:13:00,41.2,25.8,29.83,South,170,0.0,0.0,54,0.00,,---,0.00,VWS V14.01,2013-01-20 11:13:00,
2013-01-20 06:18:00,41.2,25.4,29.82,South,176,2.0,6.0,53,0.00,,---,0.00,VWS V14.01,2013-01-20 11:18:00,
2013-01-20 06:23:00,41.5,26.1,29.83,West,266,0.0,3.0,54,0.00,,---,0.00,VWS V14.01,2013-01-20 11:23:00,
2013-01-20 06:28:00,41.5,25.7,29.83,SSE,152,0.0,3.0,53,0.00,,---,0.00,VWS V14.01,2013-01-20 11:28:00,
2013-01-20 06:34:00,41.5,26.1,29.83,ESE,112,1.0,1.0,54,0.00,,---,0.00,VWS V14.01,2013-01-20 11:34:00,
2013-01-20 06:39:00,41.3,25.9,29.83,NW,324,3.0,3.0,54,0.00,,---,0.00,VWS V14.01,2013-01-20 11:39:00,
2013-01-20 06:44:00,41.3,25.9,29.83,WSW,240,0.0,0.0,54,0.00,,---,0.00,VWS V14.01,2013-01-20 11:44:00,
2013-01-20 06:49:00,41.4,25.6,29.83,ENE,65,4.0,4.0,53,0.00,,---,0.00,VWS V14.01,2013-01-20 11:49:00,
2013-01-20 06:54:00,41.6,26.2,29.83,North,7,0.0,0.0,54,0.00,,---,0.00,VWS V14.01,2013-01-20 11:54:00,
2013-01-20 06:59:00,41.6,25.8,29.83,SE,124,0.0,0.0,53,0.00,,---,0.00,VWS V14.01,2013-01-20 11:59:00,
2013-01-20 07:04:00,41.4,25.6,29.83,SE,124,0.0,1.0,53,0.00,,---,0.00,VWS V14.01,2013-01-20 12:04:00,
2013-01-20 07:09:00,41.4,25.6,29.83,WSW,246,0.0,2.0,53,0.00,,---,0.00,VWS V14.01,2013-01-20 12:09:00,
2013-01-20 07:14:00,41.3,26.4,29.83,SSW,204,0.0,1.0,55,0.00,,---,0.00,VWS V14.01,2013-01-20 12:14:00,
2013-01-20 07:19:00,41.0,26.1,29.83,WSW,253,0.0,0.0,55,0.00,,---,0.00,VWS V14.01,2013-01-20 12:19:00,
2013-01-20 07:24:00,40.6,25.7,29.83,SSW,212,0.0,3.0,55,0.00,,---,0.00,VWS V14.01,2013-01-20 12:24:00,
2013-01-20 07:29:00,40.8,25.9,29.83,East,85,1.0,2.0,55,0.00,,---,0.00,VWS V14.01,2013-01-20 12:29:00,
2013-01-20 07:34:00,40.7,25.8,29.83,West,266,0.0,0.0,55,0.00,,---,0.00,VWS V14.01,2013-01-20 12:34:00,
2013-01-20 07:40:00,40.6,26.1,29.84,WSW,248,0.0,1.0,56,0.00,,---,0.00,VWS V14.01,2013-01-20 12:40:00,
2013-01-20 07:45:00,40.4,26.0,29.84,NE,49,0.0,0.0,56,0.00,,---,0.00,VWS V14.01,2013-01-20 12:45:00,
2013-01-20 07:50:00,40.3,25.9,29.84,ESE,107,0.0,1.0,56,0.00,,---,0.00,VWS V14.01,2013-01-20 12:50:00,
2013-01-20 07:55:00,40.1,26.1,29.85,NNW,330,0.0,1.0,57,0.00,,---,0.00,VWS V14.01,2013-01-20 12:55:00,
2013-01-20 08:00:00,40.1,26.5,29.85,SE,136,2.0,4.0,58,0.00,,---,0.00,VWS V14.01,2013-01-20 13:00:00,
2013-01-20 08:05:00,39.9,26.3,29.85,East,101,0.0,0.0,58,0.00,,---,0.00,VWS V14.01,2013-01-20 13:05:00,
2013-01-20 08:10:00,40.0,26.4,29.85,SSE,153,0.0,1.0,58,0.00,,---,0.00,VWS V14.01,2013-01-20 13:10:00,
2013-01-20 08:15:00,40.2,27.0,29.85,ENE,64,1.0,1.0,59,0.00,,---,0.00,VWS V14.01,2013-01-20 13:15:00,
2013-01-20 08:21:00,40.4,27.2,29.85,NW,322,0.0,1.0,59,0.00,,---,0.00,VWS V14.01,2013-01-20 13:21:00,
2013-01-20 08:26:00,40.7,27.9,29.85,ENE,57,1.0,1.0,60,0.00,,---,0.00,VWS V14.01,2013-01-20 13:26:00,
2013-01-20 08:31:00,41.2,28.0,29.85,NNE,28,3.0,3.0,59,0.00,,---,0.00,VWS V14.01,2013-01-20 13:31:00,
2013-01-20 08:36:00,41.7,28.4,29.85,NE,34,0.0,2.0,59,0.00,,---,0.00,VWS V14.01,2013-01-20 13:36:00,
2013-01-20 08:41:00,42.4,28.7,29.85,NNE,26,0.0,1.0,58,0.00,,---,0.00,VWS V14.01,2013-01-20 13:41:00,
2013-01-20 08:46:00,42.9,28.7,29.85,ESE,116,1.0,1.0,57,0.00,,---,0.00,VWS V14.01,2013-01-20 13:46:00,
2013-01-20 08:51:00,43.5,29.3,29.85,NE,34,1.0,2.0,57,0.00,,---,0.00,VWS V14.01,2013-01-20 13:51:00,
2013-01-20 08:56:00,44.0,29.8,29.85,ESE,118,4.0,4.0,57,0.00,,---,0.00,VWS V14.01,2013-01-20 13:56:00,
2013-01-20 09:01:00,44.8,30.5,29.85,ENE,66,0.0,3.0,57,0.00,,---,0.00,VWS V14.01,2013-01-20 14:01:00,
2013-01-20 09:06:00,45.4,30.6,29.85,SE,146,0.0,3.0,56,0.00,,---,0.00,VWS V14.01,2013-01-20 14:06:00,
2013-01-20 09:11:00,45.9,31.1,29.85,NNE,18,2.0,3.0,56,0.00,,---,0.00,VWS V14.01,2013-01-20 14:11:00,
2013-01-20 09:16:00,46.3,31.5,29.85,NE,54,2.0,6.0,56,0.00,,---,0.00,VWS V14.01,2013-01-20 14:16:00,
2013-01-20 09:21:00,46.7,31.4,29.85,NE,39,7.0,7.0,55,0.00,,---,0.00,VWS V14.01,2013-01-20 14:21:00,
2013-01-20 09:26:00,47.2,31.4,29.85,ENE,58,1.0,2.0,54,0.00,,---,0.00,VWS V14.01,2013-01-20 14:26:00,
2013-01-20 09:32:00,47.6,31.8,29.85,NE,41,5.0,5.0,54,0.00,,---,0.00,VWS V14.01,2013-01-20 14:32:00,
2013-01-20 09:37:00,47.9,31.6,29.84,North,352,2.0,2.0,53,0.00,,---,0.00,VWS V14.01,2013-01-20 14:37:00,
2013-01-20 09:42:00,48.3,32.4,29.84,West,276,0.0,5.0,54,0.00,,---,0.00,VWS V14.01,2013-01-20 14:42:00,
2013-01-20 09:47:00,48.6,31.8,29.85,West,274,1.0,3.0,52,0.00,,---,0.00,VWS V14.01,2013-01-20 14:47:00,
2013-01-20 09:52:00,48.9,32.5,29.85,ESE,103,2.0,3.0,53,0.00,,---,0.00,VWS V14.01,2013-01-20 14:52:00,
2013-01-20 09:57:00,49.1,31.8,29.85,West,278,1.0,3.0,51,0.00,,---,0.00,VWS V14.01,2013-01-20 14:57:00,
2013-01-20 10:02:00,49.3,32.0,29.84,SSW,205,4.0,5.0,51,0.00,,---,0.00,VWS V14.01,2013-01-20 15:02:00,
2013-01-20 10:07:00,49.4,31.6,29.85,West,262,2.0,10.0,50,0.00,,---,0.00,VWS V14.01,2013-01-20 15:07:00,
2013-01-20 10:12:00,49.6,31.2,29.85,SW,236,5.0,5.0,49,0.00,,---,0.00,VWS V14.01,2013-01-20 15:12:00,
2013-01-20 10:17:00,49.9,31.5,29.85,West,273,2.0,5.0,49,0.00,,---,0.00,VWS V14.01,2013-01-20 15:17:00,
2013-01-20 10:23:00,50.1,31.2,29.85,ESE,110,3.0,5.0,48,0.00,,---,0.00,VWS V14.01,2013-01-20 15:23:00,
2013-01-20 10:28:00,50.4,31.0,29.85,SW,228,0.0,2.0,47,0.00,,---,0.00,VWS V14.01,2013-01-20 15:28:00,
2013-01-20 10:33:00,50.6,31.6,29.85,NNW,328,3.0,5.0,48,0.00,,---,0.00,VWS V14.01,2013-01-20 15:33:00,
2013-01-20 10:38:00,50.7,31.2,29.86,NW,315,5.0,6.0,47,0.00,,---,0.00,VWS V14.01,2013-01-20 15:38:00,
2013-01-20 10:43:00,50.7,30.7,29.86,WSW,241,2.0,5.0,46,0.00,,---,0.00,VWS V14.01,2013-01-20 15:43:00,
2013-01-20 10:48:00,50.8,30.2,29.86,NE,49,3.0,5.0,45,0.00,,---,0.00,VWS V14.01,2013-01-20 15:48:00,
2013-01-20 10:53:00,50.9,30.3,29.86,SE,139,4.0,9.0,45,0.00,,---,0.00,VWS V14.01,2013-01-20 15:53:00,
2013-01-20 10:58:00,51.0,30.4,29.86,NE,39,3.0,3.0,45,0.00,,---,0.00,VWS V14.01,2013-01-20 15:58:00,
2013-01-20 11:03:00,51.3,30.1,29.86,NW,316,7.0,8.0,44,0.00,,---,0.00,VWS V14.01,2013-01-20 16:03:00,
2013-01-20 11:08:00,51.2,30.0,29.85,SW,236,0.0,8.0,44,0.00,,---,0.00,VWS V14.01,2013-01-20 16:08:00,
2013-01-20 11:13:00,51.3,30.7,29.86,NNE,12,3.0,5.0,45,0.00,,---,0.00,VWS V14.01,2013-01-20 16:13:00,
2013-01-20 11:18:00,51.7,29.9,29.86,North,354,0.0,5.0,43,0.00,,---,0.00,VWS V14.01,2013-01-20 16:18:00,
2013-01-20 11:23:00,52.0,31.3,29.86,NW,311,1.0,2.0,45,0.00,,---,0.00,VWS V14.01,2013-01-20 16:23:00,
2013-01-20 11:28:00,52.3,30.5,29.85,North,349,2.0,3.0,43,0.00,,---,0.00,VWS V14.01,2013-01-20 16:28:00,
2013-01-20 11:34:00,52.0,29.0,29.85,ENE,72,3.0,4.0,41,0.00,,---,0.00,VWS V14.01,2013-01-20 16:34:00,
2013-01-20 11:39:00,52.0,29.6,29.85,North,354,0.0,4.0,42,0.00,,---,0.00,VWS V14.01,2013-01-20 16:39:00,
2013-01-20 11:44:00,52.2,29.2,29.85,NE,46,6.0,7.0,41,0.00,,---,0.00,VWS V14.01,2013-01-20 16:44:00,
2013-01-20 11:49:00,52.1,29.1,29.85,West,278,7.0,10.0,41,0.00,,---,0.00,VWS V14.01,2013-01-20 16:49:00,
2013-01-20 11:54:00,51.8,28.9,29.84,WNW,283,2.0,4.0,41,0.00,,---,0.00,VWS V14.01,2013-01-20 16:54:00,
2013-01-20 11:59:00,51.8,29.5,29.84,NNE,19,3.0,5.0,42,0.00,,---,0.00,VWS V14.01,2013-01-20 16:59:00,
2013-01-20 12:04:00,51.9,29.5,29.84,NNE,23,4.0,5.0,42,0.00,,---,0.00,VWS V14.01,2013-01-20 17:04:00,
2013-01-20 12:09:00,51.5,28.0,29.84,WSW,251,9.0,11.0,40,0.00,,---,0.00,VWS V14.01,2013-01-20 17:09:00,
2013-01-20 12:14:00,51.4,27.3,29.84,NNE,22,4.0,8.0,39,0.00,,---,0.00,VWS V14.01,2013-01-20 17:14:00,
2013-01-20 12:20:00,51.2,27.7,29.84,NNW,335,5.0,7.0,40,0.00,,---,0.00,VWS V14.01,2013-01-20 17:20:00,
2013-01-20 12:25:00,51.2,27.1,29.84,NE,49,0.0,1.0,39,0.00,,---,0.00,VWS V14.01,2013-01-20 17:25:00,
2013-01-20 12:30:00,51.0,26.9,29.84,WNW,289,4.0,6.0,39,0.00,,---,0.00,VWS V14.01,2013-01-20 17:30:00,
2013-01-20 12:35:00,51.2,27.1,29.84,WNW,283,4.0,9.0,39,0.00,,---,0.00,VWS V14.01,2013-01-20 17:35:00,
2013-01-20 12:40:00,50.9,26.2,29.84,NNE,20,4.0,7.0,38,0.00,,---,0.00,VWS V14.01,2013-01-20 17:40:00,
2013-01-20 12:45:00,50.8,26.1,29.84,East,90,2.0,5.0,38,0.00,,---,0.00,VWS V14.01,2013-01-20 17:45:00,
2013-01-20 12:50:00,50.7,26.0,29.85,ESE,102,2.0,6.0,38,0.00,,---,0.00,VWS V14.01,2013-01-20 17:50:00,
2013-01-20 12:55:00,50.9,26.8,29.84,NNW,333,1.0,6.0,39,0.00,,---,0.00,VWS V14.01,2013-01-20 17:55:00,
2013-01-20 13:00:00,50.9,26.8,29.85,NNW,348,3.0,4.0,39,0.00,,---,0.00,VWS V14.01,2013-01-20 18:00:00,
2013-01-20 13:05:00,50.6,26.6,29.85,NE,56,3.0,3.0,39,0.00,,---,0.00,VWS V14.01,2013-01-20 18:05:00,
2013-01-20 13:10:00,50.4,25.8,29.85,SW,214,4.0,4.0,38,0.00,,---,0.00,VWS V14.01,2013-01-20 18:10:00,
2013-01-20 13:16:00,50.3,25.7,29.85,West,279,1.0,3.0,38,0.00,,---,0.00,VWS V14.01,2013-01-20 18:16:00,
2013-01-20 13:21:00,50.4,25.1,29.85,NNW,328,5.0,12.0,37,0.00,,---,0.00,VWS V14.01,2013-01-20 18:21:00,
2013-01-20 13:26:00,50.5,25.9,29.85,NE,34,4.0,6.0,38,0.00,,---,0.00,VWS V14.01,2013-01-20 18:26:00,
2013-01-20 13:31:00,50.2,25.0,29.85,NW,307,3.0,5.0,37,0.00,,---,0.00,VWS V14.01,2013-01-20 18:31:00,
2013-01-20 13:36:00,50.1,24.9,29.85,NE,40,4.0,5.0,37,0.00,,---,0.00,VWS V14.01,2013-01-20 18:36:00,
2013-01-20 13:41:00,50.0,25.4,29.86,NNE,32,0.0,4.0,38,0.00,,---,0.00,VWS V14.01,2013-01-20 18:41:00,
2013-01-20 13:47:00,50.2,25.0,29.85,NNW,340,2.0,5.0,37,0.00,,---,0.00,VWS V14.01,2013-01-20 18:47:00,
2013-01-20 13:52:00,50.3,25.7,29.86,NE,41,3.0,3.0,38,0.00,,---,0.00,VWS V14.01,2013-01-20 18:52:00,
2013-01-20 13:57:00,50.2,24.3,29.86,NE,39,1.0,3.0,36,0.00,,---,0.00,VWS V14.01,2013-01-20 18:57:00,
2013-01-20 14:02:00,50.0,23.4,29.87,East,79,1.0,1.0,35,0.00,,---,0.00,VWS V14.01,2013-01-20 19:02:00,
2013-01-20 14:07:00,49.8,24.6,29.87,SSW,203,2.0,2.0,37,0.00,,---,0.00,VWS V14.01,2013-01-20 19:07:00,
2013-01-20 14:12:00,49.7,22.5,29.87,NW,311,2.0,8.0,34,0.00,,---,0.00,VWS V14.01,2013-01-20 19:12:00,
2013-01-20 14:17:00,49.5,21.6,29.88,NNW,333,0.0,1.0,33,0.00,,---,0.00,VWS V14.01,2013-01-20 19:17:00,
2013-01-20 14:22:00,49.4,20.8,29.88,WNW,295,1.0,4.0,32,0.00,,---,0.00,VWS V14.01,2013-01-20 19:22:00,
2013-01-20 14:27:00,49.4,19.3,29.88,NW,309,1.0,1.0,30,0.00,,---,0.00,VWS V14.01,2013-01-20 19:27:00,
2013-01-20 14:33:00,49.3,18.4,29.88,WNW,295,0.0,0.0,29,0.00,,---,0.00,VWS V14.01,2013-01-20 19:33:00,
2013-01-20 14:38:00,49.2,19.9,29.89,SW,236,4.0,4.0,31,0.00,,---,0.00,VWS V14.01,2013-01-20 19:38:00,
2013-01-20 14:43:00,49.1,18.2,29.89,NW,319,0.0,1.0,29,0.00,,---,0.00,VWS V14.01,2013-01-20 19:43:00,
2013-01-20 14:48:00,48.7,17.9,29.89,WNW,285,5.0,5.0,29,0.00,,---,0.00,VWS V14.01,2013-01-20 19:48:00,
2013-01-20 14:53:00,48.3,18.3,29.89,NNW,341,3.0,4.0,30,0.00,,---,0.00,VWS V14.01,2013-01-20 19:53:00,
2013-01-20 14:58:00,47.7,15.4,29.89,ESE,110,0.0,5.0,27,0.00,,---,0.00,VWS V14.01,2013-01-20 19:58:00,
2013-01-20 15:04:00,47.3,14.2,29.90,NE,53,0.0,2.0,26,0.00,,---,0.00,VWS V14.01,2013-01-20 20:04:00,
2013-01-20 15:09:00,47.0,13.9,29.90,NNW,345,0.0,2.0,26,0.00,,---,0.00,VWS V14.01,2013-01-20 20:09:00,
2013-01-20 15:14:00,46.8,13.7,29.91,ENE,62,1.0,2.0,26,0.00,,---,0.00,VWS V14.01,2013-01-20 20:14:00,
2013-01-20 15:19:00,46.7,15.3,29.91,ENE,60,5.0,5.0,28,0.00,,---,0.00,VWS V14.01,2013-01-20 20:19:00,
2013-01-20 15:24:00,46.4,12.5,29.92,NW,304,0.0,5.0,25,0.00,,---,0.00,VWS V14.01,2013-01-20 20:24:00,
2013-01-20 15:29:00,46.2,12.3,29.92,NW,325,0.0,0.0,25,0.00,,---,0.00,VWS V14.01,2013-01-20 20:29:00,
2013-01-20 15:34:00,45.9,13.0,29.92,NW,311,3.0,3.0,26,0.00,,---,0.00,VWS V14.01,2013-01-20 20:34:00,
2013-01-20 15:39:00,45.7,13.6,29.92,NE,53,4.0,5.0,27,0.00,,---,0.00,VWS V14.01,2013-01-20 20:39:00,
2013-01-20 15:44:00,45.3,12.4,29.93,ENE,64,5.0,9.0,26,0.00,,---,0.00,VWS V14.01,2013-01-20 20:44:00,
2013-01-20 15:50:00,44.9,13.8,29.93,South,170,1.0,1.0,28,0.00,,---,0.00,VWS V14.01,2013-01-20 20:50:00,
2013-01-20 15:55:00,44.4,12.5,29.93,West,281,2.0,2.0,27,0.00,,---,0.00,VWS V14.01,2013-01-20 20:55:00,
2013-01-20 16:00:00,44.1,12.3,29.94,SW,236,7.0,7.0,27,0.00,,---,0.00,VWS V14.01,2013-01-20 21:00:00,
2013-01-20 16:05:00,43.9,11.2,29.94,WNW,297,5.0,8.0,26,0.00,,---,0.00,VWS V14.01,2013-01-20 21:05:00,
2013-01-20 16:10:00,43.6,11.8,29.94,WNW,285,0.0,3.0,27,0.00,,---,0.00,VWS V14.01,2013-01-20 21:10:00,
2013-01-20 16:15:00,43.3,12.4,29.94,WNW,295,2.0,7.0,28,0.00,,---,0.00,VWS V14.01,2013-01-20 21:15:00,
2013-01-20 16:20:00,43.1,11.4,29.95,North,7,1.0,1.0,27,0.00,,---,0.00,VWS V14.01,2013-01-20 21:20:00,
2013-01-20 16:25:00,42.8,11.1,29.95,North,352,0.0,0.0,27,0.00,,---,0.00,VWS V14.01,2013-01-20 21:25:00,
2013-01-20 16:31:00,42.6,11.8,29.96,North,356,1.0,1.0,28,0.00,,---,0.00,VWS V14.01,2013-01-20 21:31:00,
2013-01-20 16:36:00,42.2,13.8,29.96,NNW,342,0.0,1.0,31,0.00,,---,0.00,VWS V14.01,2013-01-20 21:36:00,
2013-01-20 16:41:00,41.7,12.6,29.96,NW,326,1.0,2.0,30,0.00,,---,0.00,VWS V14.01,2013-01-20 21:41:00,
2013-01-20 16:46:00,41.5,13.1,29.96,NW,323,0.0,0.0,31,0.00,,---,0.00,VWS V14.01,2013-01-20 21:46:00,
2013-01-20 16:51:00,41.1,13.5,29.96,WSW,252,0.0,1.0,32,0.00,,---,0.00,VWS V14.01,2013-01-20 21:51:00,
2013-01-20 16:57:00,40.7,13.1,29.96,WNW,297,0.0,0.0,32,0.00,,---,0.00,VWS V14.01,2013-01-20 21:57:00,
2013-01-20 17:02:00,40.3,12.1,29.97,WNW,290,0.0,0.0,31,0.00,,---,0.00,VWS V14.01,2013-01-20 22:02:00,
2013-01-20 17:07:00,40.2,11.3,29.97,NNE,20,0.0,1.0,30,0.00,,---,0.00,VWS V14.01,2013-01-20 22:07:00,
2013-01-20 17:12:00,39.8,12.4,29.97,NW,314,0.0,2.0,32,0.00,,---,0.00,VWS V14.01,2013-01-20 22:12:00,
2013-01-20 17:17:00,39.5,11.4,29.97,West,267,0.0,1.0,31,0.00,,---,0.00,VWS V14.01,2013-01-20 22:17:00,
2013-01-20 17:22:00,39.3,11.2,29.98,WNW,300,1.0,2.0,31,0.00,,---,0.00,VWS V14.01,2013-01-20 22:22:00,
2013-01-20 17:27:00,39.0,11.7,29.98,NNW,332,0.0,0.0,32,0.00,,---,0.00,VWS V14.01,2013-01-20 22:27:00,
2013-01-20 17:32:00,38.7,11.4,29.99,NW,322,1.0,2.0,32,0.00,,---,0.00,VWS V14.01,2013-01-20 22:32:00,
2013-01-20 17:37:00,38.5,10.5,29.99,NE,44,0.0,2.0,31,0.00,,---,0.00,VWS V14.01,2013-01-20 22:37:00,
2013-01-20 17:42:00,38.3,11.7,30.00,SSW,210,0.0,3.0,33,0.00,,---,0.00,VWS V14.01,2013-01-20 22:42:00,
2013-01-20 17:47:00,38.2,12.3,30.00,West,274,0.0,1.0,34,0.00,,---,0.00,VWS V14.01,2013-01-20 22:47:00,
2013-01-20 17:52:00,38.0,11.5,30.00,NW,321,1.0,3.0,33,0.00,,---,0.00,VWS V14.01,2013-01-20 22:52:00,
2013-01-20 17:57:00,37.9,12.7,30.00,NNW,329,0.0,1.0,35,0.00,,---,0.00,VWS V14.01,2013-01-20 22:57:00,
2013-01-20 18:02:00,37.5,11.7,30.00,WSW,256,0.0,0.0,34,0.00,,---,0.00,VWS V14.01,2013-01-20 23:02:00,
2013-01-20 18:07:00,37.2,12.7,30.00,NW,308,0.0,0.0,36,0.00,,---,0.00,VWS V14.01,2013-01-20 23:07:00,
2013-01-20 18:13:00,37.1,12.6,30.01,WNW,302,2.0,2.0,36,0.00,,---,0.00,VWS V14.01,2013-01-20 23:13:00,
2013-01-20 18:18:00,36.9,12.4,30.01,NNW,330,0.0,0.0,36,0.00,,---,0.00,VWS V14.01,2013-01-20 23:18:00,
2013-01-20 18:23:00,36.7,12.3,30.01,NW,307,0.0,1.0,36,0.00,,---,0.00,VWS V14.01,2013-01-20 23:23:00,
2013-01-20 18:28:00,36.4,12.0,30.01,NNW,345,0.0,1.0,36,0.00,,---,0.00,VWS V14.01,2013-01-20 23:28:00,
2013-01-20 18:33:00,36.2,13.1,30.01,NNW,335,0.0,0.0,38,0.00,,---,0.00,VWS V14.01,2013-01-20 23:33:00,
2013-01-20 18:38:00,35.8,12.7,30.01,NW,322,0.0,1.0,38,0.00,,---,0.00,VWS V14.01,2013-01-20 23:38:00,
2013-01-20 18:43:00,35.5,13.6,30.01,West,275,0.0,0.0,40,0.00,,---,0.00,VWS V14.01,2013-01-20 23:43:00,
2013-01-20 18:48:00,35.1,13.8,30.02,West,277,0.0,1.0,41,0.00,,---,0.00,VWS V14.01,2013-01-20 23:48:00,
2013-01-20 18:53:00,34.8,14.6,30.02,West,272,0.0,0.0,43,0.00,,---,0.00,VWS V14.01,2013-01-20 23:53:00,
2013-01-20 18:58:00,34.5,14.3,30.02,WNW,284,0.0,1.0,43,0.00,,---,0.00,VWS V14.01,2013-01-20 23:58:00,
2013-01-20 19:03:00,34.3,14.7,30.02,WNW,283,0.0,0.0,44,0.00,,---,0.00,VWS V14.01,2013-01-21 00:03:00,
2013-01-20 19:08:00,34.0,14.4,30.02,West,269,0.0,0.0,44,0.00,,---,0.00,VWS V14.01,2013-01-21 00:08:00,
2013-01-20 19:13:00,33.8,15.2,30.03,WNW,299,0.0,1.0,46,0.00,,---,0.00,VWS V14.01,2013-01-21 00:13:00,
2013-01-20 19:19:00,33.4,15.4,30.03,NW,321,0.0,0.0,47,0.00,,---,0.00,VWS V14.01,2013-01-21 00:19:00,
2013-01-20 19:24:00,33.3,14.8,30.03,West,278,0.0,1.0,46,0.00,,---,0.00,VWS V14.01,2013-01-21 00:24:00,
2013-01-20 19:29:00,33.4,14.9,30.03,NW,316,0.0,1.0,46,0.00,,---,0.00,VWS V14.01,2013-01-21 00:29:00,
2013-01-20 19:34:00,33.1,15.1,30.04,WNW,297,0.0,1.0,47,0.00,,---,0.00,VWS V14.01,2013-01-21 00:34:00,
2013-01-20 19:39:00,32.9,14.9,30.03,West,281,0.0,0.0,47,0.00,,---,0.00,VWS V14.01,2013-01-21 00:39:00,
2013-01-20 19:44:00,32.8,14.8,30.03,West,281,0.0,1.0,47,0.00,,---,0.00,VWS V14.01,2013-01-21 00:44:00,
2013-01-20 19:49:00,32.7,14.7,30.03,NNW,336,0.0,0.0,47,0.00,,---,0.00,VWS V14.01,2013-01-21 00:49:00,
2013-01-20 19:54:00,32.7,14.2,30.03,NW,320,0.0,2.0,46,0.00,,---,0.00,VWS V14.01,2013-01-21 00:54:00,
2013-01-20 19:59:00,32.5,15.0,30.03,NW,311,0.0,1.0,48,0.00,,---,0.00,VWS V14.01,2013-01-21 00:59:00,
2013-01-20 20:04:00,32.5,15.0,30.03,WNW,291,0.0,1.0,48,0.00,,---,0.00,VWS V14.01,2013-01-21 01:04:00,
2013-01-20 20:10:00,32.3,14.8,30.04,WNW,291,1.0,1.0,48,0.00,,---,0.00,VWS V14.01,2013-01-21 01:10:00,
2013-01-20 20:15:00,32.1,15.1,30.03,WNW,292,0.0,0.0,49,0.00,,---,0.00,VWS V14.01,2013-01-21 01:15:00,
2013-01-20 20:20:00,32.0,14.6,30.03,WNW,287,0.0,0.0,48,0.00,,---,0.00,VWS V14.01,2013-01-21 01:20:00,
2013-01-20 20:25:00,31.7,14.7,30.04,WNW,298,1.0,1.0,49,0.00,,---,0.00,VWS V14.01,2013-01-21 01:25:00,
2013-01-20 20:30:00,31.7,14.7,30.04,NW,307,0.0,1.0,49,0.00,,---,0.00,VWS V14.01,2013-01-21 01:30:00,
2013-01-20 20:35:00,31.8,14.8,30.04,West,264,0.0,1.0,49,0.00,,---,0.00,VWS V14.01,2013-01-21 01:35:00,
2013-01-20 20:40:00,31.6,14.6,30.04,West,260,0.0,0.0,49,0.00,,---,0.00,VWS V14.01,2013-01-21 01:40:00,
2013-01-20 20:45:00,31.6,14.2,30.04,WNW,295,0.0,0.0,48,0.00,,---,0.00,VWS V14.01,2013-01-21 01:45:00,
2013-01-20 20:50:00,31.5,14.6,30.04,West,279,0.0,0.0,49,0.00,,---,0.00,VWS V14.01,2013-01-21 01:50:00,
2013-01-20 20:56:00,31.3,14.4,30.05,WNW,294,0.0,1.0,49,0.00,,---,0.00,VWS V14.01,2013-01-21 01:56:00,
2013-01-20 21:01:00,31.3,14.8,30.05,NW,319,0.0,0.0,50,0.00,,---,0.00,VWS V14.01,2013-01-21 02:01:00,
2013-01-20 21:06:00,31.1,14.2,30.05,WNW,293,1.0,1.0,49,0.00,,---,0.00,VWS V14.01,2013-01-21 02:06:00,
2013-01-20 21:11:00,31.2,14.7,30.05,WSW,243,0.0,1.0,50,0.00,,---,0.00,VWS V14.01,2013-01-21 02:11:00,
2013-01-20 21:17:00,31.2,14.7,30.05,WNW,297,0.0,0.0,50,0.00,,---,0.00,VWS V14.01,2013-01-21 02:17:00,
2013-01-20 21:22:00,30.9,14.5,30.05,WSW,248,0.0,0.0,50,0.00,,---,0.00,VWS V14.01,2013-01-21 02:22:00,
2013-01-20 21:27:00,30.8,14.8,30.05,West,280,0.0,0.0,51,0.00,,---,0.00,VWS V14.01,2013-01-21 02:27:00,
2013-01-20 21:32:00,30.7,14.7,30.05,West,274,0.0,0.0,51,0.00,,---,0.00,VWS V14.01,2013-01-21 02:32:00,
2013-01-20 21:37:00,30.6,14.6,30.05,West,274,0.0,0.0,51,0.00,,---,0.00,VWS V14.01,2013-01-21 02:37:00,
2013-01-20 21:42:00,30.5,14.5,30.05,NW,304,0.0,0.0,51,0.00,,---,0.00,VWS V14.01,2013-01-21 02:42:00,
2013-01-20 21:48:00,30.5,15.0,30.06,West,264,0.0,1.0,52,0.00,,---,0.00,VWS V14.01,2013-01-21 02:48:00,
2013-01-20 21:53:00,30.5,15.4,30.06,SSW,195,0.0,0.0,53,0.00,,---,0.00,VWS V14.01,2013-01-21 02:53:00,
2013-01-20 21:58:00,30.5,15.0,30.06,West,263,0.0,0.0,52,0.00,,---,0.00,VWS V14.01,2013-01-21 02:58:00,
2013-01-20 22:03:00,30.4,14.9,30.06,NNW,337,1.0,3.0,52,0.00,,---,0.00,VWS V14.01,2013-01-21 03:03:00,
2013-01-20 22:08:00,30.4,14.9,30.06,WNW,288,0.0,1.0,52,0.00,,---,0.00,VWS V14.01,2013-01-21 03:08:00,
2013-01-20 22:13:00,30.2,15.1,30.07,NW,304,0.0,2.0,53,0.00,,---,0.00,VWS V14.01,2013-01-21 03:13:00,
2013-01-20 22:18:00,30.0,15.4,30.07,WNW,302,0.0,0.0,54,0.00,,---,0.00,VWS V14.01,2013-01-21 03:18:00,
2013-01-20 22:23:00,29.8,15.2,30.07,West,259,0.0,1.0,54,0.00,,---,0.00,VWS V14.01,2013-01-21 03:23:00,
2013-01-20 22:29:00,29.8,15.2,30.07,WNW,284,1.0,1.0,54,0.00,,---,0.00,VWS V14.01,2013-01-21 03:29:00,
2013-01-20 22:34:00,29.7,15.5,30.06,NW,316,0.0,0.0,55,0.00,,---,0.00,VWS V14.01,2013-01-21 03:34:00,
2013-01-20 22:39:00,29.5,15.3,30.06,NW,311,1.0,1.0,55,0.00,,---,0.00,VWS V14.01,2013-01-21 03:39:00,
2013-01-20 22:44:00,29.4,15.2,30.06,WNW,285,0.0,0.0,55,0.00,,---,0.00,VWS V14.01,2013-01-21 03:44:00,
2013-01-20 22:49:00,29.4,15.2,30.06,NNW,347,1.0,1.0,55,0.00,,---,0.00,VWS V14.01,2013-01-21 03:49:00,
2013-01-20 22:54:00,29.4,15.2,30.06,WNW,283,1.0,1.0,55,0.00,,---,0.00,VWS V14.01,2013-01-21 03:54:00,
2013-01-20 22:59:00,29.3,16.0,30.06,NW,312,0.0,0.0,57,0.00,,---,0.00,VWS V14.01,2013-01-21 03:59:00,
2013-01-20 23:04:00,29.2,15.5,30.06,WNW,300,1.0,1.0,56,0.00,,---,0.00,VWS V14.01,2013-01-21 04:04:00,
2013-01-20 23:09:00,29.3,15.6,30.06,WNW,300,0.0,0.0,56,0.00,,---,0.00,VWS V14.01,2013-01-21 04:09:00,
2013-01-20 23:15:00,29.2,15.9,30.06,NW,305,1.0,1.0,57,0.00,,---,0.00,VWS V14.01,2013-01-21 04:15:00,
2013-01-20 23:20:00,29.0,15.7,30.07,NW,304,0.0,0.0,57,0.00,,---,0.00,VWS V14.01,2013-01-21 04:20:00,
2013-01-20 23:25:00,29.0,15.7,30.07,North,351,0.0,1.0,57,0.00,,---,0.00,VWS V14.01,2013-01-21 04:25:00,
2013-01-20 23:30:00,28.9,15.2,30.07,NNW,328,0.0,1.0,56,0.00,,---,0.00,VWS V14.01,2013-01-21 04:30:00,
2013-01-20 23:35:00,28.8,15.5,30.07,West,259,2.0,2.0,57,0.00,,---,0.00,VWS V14.01,2013-01-21 04:35:00,
2013-01-20 23:40:00,28.8,15.5,30.07,NW,322,0.0,0.0,57,0.00,,---,0.00,VWS V14.01,2013-01-21 04:40:00,
2013-01-20 23:46:00,28.7,15.4,30.07,NW,316,0.0,0.0,57,0.00,,---,0.00,VWS V14.01,2013-01-21 04:46:00,
2013-01-20 23:51:00,28.6,15.3,30.07,NNW,338,0.0,0.0,57,0.00,,---,0.00,VWS V14.01,2013-01-21 04:51:00,
2013-01-20 23:56:00,28.3,15.0,30.07,East,91,0.0,1.0,57,0.00,,---,0.00,VWS V14.01,2013-01-21 04:56:00,